Time;durP1;ratioP1;P1;durP2;ratioP2;P2;SDS_P1;SDS_P2;PMS_P1;PMS_P2;Temp;Humidity;BMP_temperature;BMP_pressure;BME280_temperature;BME280_humidity;BME280_pressure;Samples;Min_cycle;Max_cycle;Signal;HPM_P1;HPM_P2
2023/06/23 00:00:15;;;;;;;25.92;17.77;;;;;;;17.00;100.00;96866.22;5093505;28;20093;-76
2023/06/23 00:02:41;;;;;;;18.67;16.98;;;;;;;17.05;100.00;96866.56;5078651;28;20044;-76
2023/06/23 00:05:08;;;;;;;19.65;17.73;;;;;;;17.10;100.00;96856.41;5077099;28;20499;-77
2023/06/23 00:07:34;;;;;;;19.27;17.48;;;;;;;17.18;100.00;96848.53;5078579;28;20036;-76
2023/06/23 00:10:00;;;;;;;18.58;16.88;;;;;;;17.16;100.00;96840.88;5075050;28;20505;-75
2023/06/23 00:12:26;;;;;;;20.08;18.35;;;;;;;17.13;100.00;96845.59;5078608;28;20058;-76
2023/06/23 00:14:51;;;;;;;19.58;17.80;;;;;;;17.11;100.00;96852.81;5075806;28;20059;-76
2023/06/23 00:17:16;;;;;;;20.55;18.48;;;;;;;17.05;100.00;96846.41;5078088;28;20032;-75
2023/06/23 00:19:42;;;;;;;20.05;18.02;;;;;;;16.98;100.00;96858.56;5075880;28;20116;-75
2023/06/23 00:22:07;;;;;;;20.27;18.42;;;;;;;16.91;100.00;96857.56;5063304;28;20112;-76
2023/06/23 00:24:33;;;;;;;21.45;19.27;;;;;;;16.92;100.00;96867.03;5063026;28;20046;-76
2023/06/23 00:27:00;;;;;;;21.45;19.35;;;;;;;16.85;100.00;96887.81;5062153;28;20215;-75
2023/06/23 00:29:26;;;;;;;21.17;19.20;;;;;;;16.81;100.00;96876.03;5063977;28;20039;-76
2023/06/23 00:31:51;;;;;;;18.50;16.85;;;;;;;16.97;100.00;96871.78;5062118;28;20683;-75
2023/06/23 00:34:17;;;;;;;19.50;17.48;;;;;;;16.90;100.00;96861.16;5062891;28;20047;-75
2023/06/23 00:36:42;;;;;;;20.80;16.85;;;;;;;17.02;100.00;96840.69;5063578;28;20032;-75
2023/06/23 00:39:08;;;;;;;19.10;16.80;;;;;;;16.95;100.00;96817.00;5063907;28;20068;-75
2023/06/23 00:41:34;;;;;;;18.77;16.90;;;;;;;16.91;100.00;96815.66;5062407;28;20038;-75
2023/06/23 00:43:59;;;;;;;19.70;17.77;;;;;;;16.97;100.00;96804.53;5062205;28;20493;-76
2023/06/23 00:46:26;;;;;;;21.35;19.17;;;;;;;16.83;100.00;96813.03;5063641;28;20397;-76
2023/06/23 00:48:52;;;;;;;19.08;17.35;;;;;;;16.88;100.00;96831.72;5063610;28;20496;-76
2023/06/23 00:51:18;;;;;;;19.63;17.75;;;;;;;16.88;100.00;96839.56;5062429;28;20039;-76
2023/06/23 00:53:49;;;;;;;19.73;17.77;;;;;;;16.92;100.00;96832.19;5061808;28;20212;-76
2023/06/23 00:56:15;;;;;;;19.83;17.98;;;;;;;16.93;100.00;96832.03;5063310;28;20512;-76
2023/06/23 00:58:41;;;;;;;19.83;17.95;;;;;;;16.94;100.00;96828.44;5062381;28;20039;-76
2023/06/23 01:01:08;;;;;;;20.60;18.63;;;;;;;16.86;100.00;96815.31;5061595;28;20056;-75
2023/06/23 01:03:35;;;;;;;23.00;21.05;;;;;;;16.77;100.00;96824.97;5062624;28;20033;-75
2023/06/23 01:06:10;;;;;;;21.15;19.00;;;;;;;16.85;100.00;96847.75;5060993;28;20115;-76
2023/06/23 01:09:07;;;;;;;21.52;19.30;;;;;;;16.97;100.00;96841.19;5062656;28;20407;-76
2023/06/23 01:11:43;;;;;;;20.25;18.45;;;;;;;16.91;100.00;96820.09;5056891;28;20087;-76
2023/06/23 01:14:19;;;;;;;20.42;18.60;;;;;;;16.88;100.00;96830.88;5047949;28;20397;-75
2023/06/23 01:16:50;;;;;;;20.38;18.50;;;;;;;16.85;100.00;96829.41;5062374;28;20032;-76
2023/06/23 01:19:43;;;;;;;20.80;18.77;;;;;;;16.85;100.00;96829.41;5038409;28;20120;-75
2023/06/23 01:22:32;;;;;;;18.63;17.02;;;;;;;16.82;100.00;96811.44;5061555;28;20059;-75
2023/06/23 01:25:28;;;;;;;20.38;18.35;;;;;;;16.67;100.00;96798.16;5046021;28;20025;-75
2023/06/23 01:28:25;;;;;;;19.88;18.02;;;;;;;16.74;100.00;96819.25;5058447;28;20039;-75
2023/06/23 01:30:54;;;;;;;23.10;20.85;;;;;;;16.75;100.00;96836.59;5043380;28;21047;-75
2023/06/23 01:33:30;;;;;;;19.23;17.35;;;;;;;16.82;100.00;96834.97;5059618;28;20067;-75
2023/06/23 01:36:05;;;;;;;22.00;19.90;;;;;;;16.73;100.00;96825.47;5059444;28;20036;-75
2023/06/23 01:38:36;;;;;;;21.73;19.50;;;;;;;16.72;100.00;96835.13;5055228;28;20025;-75
2023/06/23 01:41:07;;;;;;;20.95;18.35;;;;;;;16.66;100.00;96820.06;5054836;28;20538;-76
2023/06/23 01:43:34;;;;;;;20.02;18.00;;;;;;;16.52;100.00;96804.16;5061256;28;20032;-76
2023/06/23 01:46:15;;;;;;;20.92;18.92;;;;;;;16.55;100.00;96801.25;5059726;28;20033;-76
2023/06/23 01:48:44;;;;;;;18.83;17.02;;;;;;;16.44;100.00;96785.84;5059000;28;21072;-76
2023/06/23 01:51:11;;;;;;;19.08;17.48;;;;;;;16.41;100.00;96786.16;5060028;28;20056;-75
2023/06/23 01:53:37;;;;;;;19.70;17.83;;;;;;;16.45;100.00;96797.91;5059254;28;20111;-75
2023/06/23 01:56:04;;;;;;;19.63;17.65;;;;;;;16.50;100.00;96796.47;5059786;28;20048;-75
2023/06/23 01:58:32;;;;;;;20.27;17.92;;;;;;;16.41;100.00;96802.66;5059352;28;20110;-74
2023/06/23 02:00:58;;;;;;;19.88;18.08;;;;;;;16.33;100.00;96828.81;5059363;28;20028;-74
2023/06/23 02:03:26;;;;;;;20.02;18.05;;;;;;;16.37;100.00;96858.91;5058653;28;20047;-75
2023/06/23 02:05:54;;;;;;;20.70;18.65;;;;;;;16.48;100.00;96873.47;5052612;28;20123;-75
2023/06/23 02:08:20;;;;;;;19.55;17.75;;;;;;;16.57;100.00;96868.13;5059997;28;20115;-75
2023/06/23 02:10:45;;;;;;;18.45;16.83;;;;;;;16.38;100.00;96844.81;5058225;28;20529;-75
2023/06/23 02:13:12;;;;;;;20.05;18.30;;;;;;;16.19;100.00;96832.03;5059849;28;20446;-75
2023/06/23 02:15:38;;;;;;;20.90;19.10;;;;;;;16.18;100.00;96841.66;5058532;28;20409;-75
2023/06/23 02:18:05;;;;;;;21.02;18.77;;;;;;;16.26;100.00;96878.31;5061078;28;20642;-75
2023/06/23 02:20:30;;;;;;;20.05;18.00;;;;;;;16.34;100.00;96878.31;5058822;28;20036;-75
2023/06/23 02:22:56;;;;;;;23.15;19.67;;;;;;;16.16;100.00;96867.16;5059116;28;20847;-76
2023/06/23 02:25:22;;;;;;;20.98;18.73;;;;;;;16.15;100.00;96885.63;5043029;28;20024;-75
2023/06/23 02:27:48;;;;;;;21.33;18.90;;;;;;;16.11;100.00;96905.22;5058479;28;20405;-75
2023/06/23 02:30:15;;;;;;;25.85;20.48;;;;;;;16.07;100.00;96941.28;5059394;28;20032;-75
2023/06/23 02:32:40;;;;;;;21.88;19.75;;;;;;;16.07;100.00;96972.66;5059789;28;20043;-75
2023/06/23 02:35:12;;;;;;;24.42;21.02;;;;;;;16.05;100.00;96971.19;5059071;28;20025;-74
2023/06/23 02:37:40;;;;;;;22.80;19.67;;;;;;;16.12;100.00;96974.81;5058976;28;20043;-74
2023/06/23 02:40:10;;;;;;;23.33;20.88;;;;;;;16.13;100.00;96998.19;5058391;28;20039;-75
2023/06/23 02:42:40;;;;;;;21.80;19.77;;;;;;;16.11;100.00;97002.75;5059175;28;20451;-76
2023/06/23 02:45:12;;;;;;;24.75;20.92;;;;;;;16.07;100.00;97009.28;5058122;28;20024;-77
2023/06/23 02:47:39;;;;;;;22.45;20.25;;;;;;;16.06;100.00;97039.00;5059296;28;20031;-75
2023/06/23 02:50:07;;;;;;;22.00;19.67;;;;;;;16.16;100.00;97044.94;5058131;28;20036;-75
2023/06/23 02:52:36;;;;;;;23.27;20.65;;;;;;;16.21;100.00;97045.28;5060357;28;20117;-75
2023/06/23 02:55:03;;;;;;;22.55;20.13;;;;;;;16.17;100.00;97043.16;5058620;28;20059;-77
2023/06/23 02:57:30;;;;;;;21.92;19.73;;;;;;;16.20;100.00;97050.69;5058791;28;20025;-77
2023/06/23 02:59:58;;;;;;;22.08;19.55;;;;;;;16.30;100.00;97049.63;5041914;28;20056;-77
2023/06/23 03:02:24;;;;;;;20.50;18.50;;;;;;;16.33;100.00;97045.88;5058468;28;20077;-76
2023/06/23 03:04:50;;;;;;;21.42;19.30;;;;;;;16.35;100.00;97023.00;5058934;28;20020;-78
2023/06/23 03:07:16;;;;;;;21.25;19.35;;;;;;;16.39;100.00;97010.44;5059626;28;20394;-77
2023/06/23 03:09:45;;;;;;;21.17;19.10;;;;;;;16.33;100.00;96972.66;5058382;28;20085;-77
2023/06/23 03:12:10;;;;;;;19.92;18.05;;;;;;;16.41;100.00;96951.75;5058602;28;20990;-77
2023/06/23 03:14:37;;;;;;;21.23;19.15;;;;;;;16.32;100.00;96916.91;5058434;28;20024;-77
2023/06/23 03:17:14;;;;;;;18.17;16.45;;;;;;;16.51;100.00;96901.91;5059960;28;20078;-76
2023/06/23 03:19:43;;;;;;;17.85;16.27;;;;;;;16.62;100.00;96871.09;5057351;28;20056;-77
2023/06/23 03:22:18;;;;;;;18.40;16.50;;;;;;;16.62;100.00;96838.88;5059181;28;20029;-77
2023/06/23 03:24:47;;;;;;;20.80;18.80;;;;;;;16.77;100.00;96817.13;5057844;28;20516;-77
2023/06/23 03:27:14;;;;;;;18.77;16.83;;;;;;;16.94;100.00;96807.50;5060012;28;20114;-77
2023/06/23 03:29:44;;;;;;;17.83;16.10;;;;;;;16.95;100.00;96769.88;5059642;28;20032;-77
2023/06/23 03:32:12;;;;;;;19.15;15.70;;;;;;;17.80;100.00;96700.19;5041404;28;20471;-77
2023/06/23 03:34:41;;;;;;;14.32;12.85;;;;;;;18.59;100.00;96363.09;5058521;28;20056;-77
2023/06/23 03:37:09;;;;;;;16.00;14.60;;;;;;;19.08;100.00;95940.28;5057900;28;20039;-77
2023/06/23 03:39:37;;;;;;;34.13;30.45;;;;;;;19.42;100.00;95693.97;5058448;28;20028;-77
2023/06/23 03:42:03;;;;;;;33.10;29.90;;;;;;;19.83;100.00;95549.03;5057949;28;20020;-77
2023/06/23 03:44:45;;;;;;;17.70;16.13;;;;;;;19.88;100.00;95451.88;5058187;28;20025;-76
2023/06/23 03:47:17;;;;;;;14.05;12.80;;;;;;;20.42;100.00;95390.66;5058114;28;20017;-77
2023/06/23 03:49:48;;;;;;;14.25;12.90;;;;;;;20.63;100.00;95326.22;5057549;28;20054;-77
2023/06/23 03:52:16;;;;;;;13.63;12.23;;;;;;;21.04;100.00;95330.66;5042236;28;20852;-77
2023/06/23 03:54:43;;;;;;;10.50;9.70;;;;;;;21.26;100.00;95292.25;5057692;28;20482;-77
2023/06/23 03:57:10;;;;;;;11.55;10.52;;;;;;;21.64;100.00;95265.41;5061471;28;20050;-77
2023/06/23 03:59:38;;;;;;;11.38;10.35;;;;;;;22.12;100.00;95227.38;5052402;28;20631;-78
2023/06/23 04:02:05;;;;;;;12.18;11.20;;;;;;;22.47;100.00;95215.63;5044946;28;20832;-77
2023/06/23 04:04:31;;;;;;;11.93;10.77;;;;;;;22.67;100.00;95194.03;5061879;28;20086;-77
2023/06/23 04:06:57;;;;;;;11.35;10.60;;;;;;;22.88;100.00;95184.63;5061328;28;20036;-77
2023/06/23 04:09:24;;;;;;;11.48;10.65;;;;;;;23.36;100.00;95166.28;5062202;28;20456;-76
2023/06/23 04:11:50;;;;;;;13.93;12.68;;;;;;;23.51;100.00;95176.28;5059318;28;20037;-76
2023/06/23 04:14:18;;;;;;;14.55;13.23;;;;;;;23.69;100.00;95177.84;5048132;28;20031;-76
2023/06/23 04:16:45;;;;;;;11.45;10.45;;;;;;;24.36;100.00;95151.84;5058698;28;20033;-76
2023/06/23 04:19:11;;;;;;;10.97;9.97;;;;;;;24.96;100.00;95146.25;5061374;28;20083;-77
2023/06/23 04:21:37;;;;;;;10.60;9.75;;;;;;;25.14;100.00;95137.88;5061225;28;20034;-76
2023/06/23 04:24:04;;;;;;;10.75;9.80;;;;;;;24.82;100.00;95147.75;5062557;28;20068;-76
2023/06/23 04:26:29;;;;;;;10.95;10.25;;;;;;;25.79;100.00;95124.13;5061531;28;20481;-76
2023/06/23 04:28:56;;;;;;;10.88;10.05;;;;;;;26.11;100.00;95119.41;5060906;28;20035;-77
2023/06/23 04:31:22;;;;;;;10.37;9.67;;;;;;;25.65;100.00;95141.59;5061435;28;20397;-76
2023/06/23 04:33:47;;;;;;;11.10;10.20;;;;;;;25.69;100.00;95138.16;5061126;28;20271;-77
2023/06/23 04:36:20;;;;;;;10.73;10.05;;;;;;;26.23;100.00;95132.50;5062047;28;20036;-76
2023/06/23 04:38:50;;;;;;;11.63;10.60;;;;;;;26.11;100.00;95130.03;5056669;28;20047;-74
2023/06/23 04:41:18;;;;;;;11.20;10.25;;;;;;;26.55;100.00;95129.59;5058791;28;20517;-73
2023/06/23 04:43:46;;;;;;;10.50;9.68;;;;;;;26.67;100.00;95128.28;5061654;28;20103;-77
2023/06/23 04:46:24;;;;;;;9.70;8.90;;;;;;;26.99;100.00;95122.69;5061725;28;20060;-75
2023/06/23 04:49:10;;;;;;;12.25;9.60;;;;;;;26.87;100.00;95132.81;5062728;28;20401;-74
2023/06/23 04:51:39;;;;;;;9.45;8.45;;;;;;;27.40;100.00;95120.72;5054118;28;21065;-74
2023/06/23 04:54:10;;;;;;;9.55;8.95;;;;;;;27.51;100.00;95129.50;5062149;28;20054;-75
2023/06/23 04:56:36;;;;;;;9.98;9.18;;;;;;;27.99;98.94;95122.59;5062436;28;20353;-74
2023/06/23 04:59:04;;;;;;;9.25;8.55;;;;;;;28.16;97.48;95117.72;5060247;28;20503;-77
2023/06/23 05:01:30;;;;;;;9.07;8.43;;;;;;;28.56;93.20;95114.78;5060946;28;20036;-74
2023/06/23 05:03:57;;;;;;;8.57;7.97;;;;;;;28.99;91.11;95120.31;5060607;28;20024;-74
2023/06/23 05:06:23;;;;;;;;;;;;;;;29.34;88.43;95117.31;5061943;28;20658;-75
2023/06/23 05:08:49;;;;;;;9.57;8.83;;;;;;;28.69;87.59;95116.03;5060798;28;19916;-75
2023/06/23 05:11:16;;;;;;;9.73;8.90;;;;;;;28.35;91.74;95120.56;5058243;28;20036;-74
2023/06/23 05:13:42;;;;;;;8.80;8.13;;;;;;;28.95;89.43;95129.94;5060239;28;20119;-77
2023/06/23 05:16:11;;;;;;;8.90;8.07;;;;;;;29.10;88.55;95127.91;5060865;28;20118;-77
2023/06/23 05:18:38;;;;;;;9.35;8.55;;;;;;;29.65;84.56;95118.53;5058041;28;20040;-77
2023/06/23 05:21:04;;;;;;;;;;;;;;;31.15;75.82;95115.78;5061308;28;20036;-77
2023/06/23 05:23:32;;;;;;;8.03;7.53;;;;;;;31.61;73.50;95110.38;5061021;28;20030;-75
2023/06/23 05:25:58;;;;;;;8.60;8.02;;;;;;;31.38;69.07;95112.16;5059972;28;20143;-75
2023/06/23 05:28:26;;;;;;;8.45;7.85;;;;;;;31.57;69.35;95104.81;5060562;28;20619;-75
2023/06/23 05:30:54;;;;;;;8.30;7.63;;;;;;;33.32;64.46;95111.00;5058225;28;20111;-75
2023/06/23 05:33:19;;;;;;;8.18;7.68;;;;;;;33.68;60.04;95114.31;5049799;28;20032;-74
2023/06/23 05:35:45;;;;;;;8.77;8.02;;;;;;;33.73;59.38;95116.06;5049825;28;20029;-76
2023/06/23 05:38:11;;;;;;;9.02;8.45;;;;;;;34.04;58.76;95115.97;5057647;28;20055;-77
2023/06/23 05:40:36;;;;;;;7.60;6.93;;;;;;;34.89;58.12;95113.31;5061569;28;20032;-77
2023/06/23 05:43:02;;;;;;;7.73;7.27;;;;;;;34.64;57.11;95111.47;5061154;28;20025;-77
2023/06/23 05:45:27;;;;;;;8.20;7.57;;;;;;;35.26;53.20;95113.72;5058848;28;20116;-77
2023/06/23 05:48:27;;;;;;;8.60;7.80;;;;;;;35.47;54.46;95111.91;5059156;28;20032;-77
2023/06/23 05:50:54;;;;;;;7.53;7.13;;;;;;;35.00;54.77;95113.00;5044191;28;20540;-77
2023/06/23 05:53:21;;;;;;;7.65;7.15;;;;;;;34.87;52.53;95112.06;5051969;28;20029;-77
2023/06/23 05:55:53;;;;;;;7.43;7.03;;;;;;;36.20;48.46;95110.59;5051752;28;20086;-77
2023/06/23 05:58:22;;;;;;;7.38;6.88;;;;;;;35.33;51.64;95114.81;5033528;28;20068;-78
2023/06/23 06:00:56;;;;;;;7.80;7.30;;;;;;;36.55;48.25;95107.63;5053145;28;20040;-77
2023/06/23 06:03:26;;;;;;;6.97;6.43;;;;;;;36.36;47.15;95116.19;5053987;28;20032;-78
2023/06/23 06:05:56;;;;;;;8.77;8.10;;;;;;;36.74;44.65;95116.81;5055204;28;20055;-77
2023/06/23 06:08:23;;;;;;;7.65;7.13;;;;;;;36.63;45.35;95112.19;5057780;28;20016;-77
2023/06/23 06:10:51;;;;;;;8.05;7.43;;;;;;;36.78;45.61;95108.84;5059589;28;20143;-77
2023/06/23 06:13:17;;;;;;;7.15;6.65;;;;;;;36.77;45.81;95112.66;5060448;28;20078;-78
2023/06/23 06:15:43;;;;;;;7.60;6.90;;;;;;;37.01;47.33;95112.78;5059584;28;20465;-77
2023/06/23 06:18:09;;;;;;;8.00;7.50;;;;;;;37.24;46.39;95110.47;5059200;28;20016;-76
2023/06/23 06:20:35;;;;;;;7.78;7.38;;;;;;;36.49;46.62;95098.91;5058399;28;20127;-77
2023/06/23 06:23:03;;;;;;;8.75;8.15;;;;;;;36.65;48.06;95105.31;5058866;28;20073;-77
2023/06/23 06:25:29;;;;;;;9.85;8.98;;;;;;;37.73;47.04;95111.34;5057573;28;20377;-77
2023/06/23 06:27:55;;;;;;;10.43;9.50;;;;;;;36.45;48.41;95103.38;5058060;28;20434;-77
2023/06/23 06:30:21;;;;;;;9.63;8.82;;;;;;;34.49;52.96;95106.53;5058307;28;20043;-78
2023/06/23 06:32:47;;;;;;;9.95;9.25;;;;;;;32.26;62.66;95102.84;5057515;28;20025;-77
2023/06/23 06:35:15;;;;;;;9.73;8.93;;;;;;;31.67;68.19;95104.63;5056930;28;20048;-76
2023/06/23 06:37:47;;;;;;;9.13;8.50;;;;;;;31.73;69.43;95098.06;5057255;28;20035;-77
2023/06/23 06:40:13;;;;;;;9.75;8.85;;;;;;;31.07;71.50;95095.88;5059668;28;20036;-78
2023/06/23 06:42:38;;;;;;;9.10;8.40;;;;;;;31.59;69.91;95096.50;5058604;28;20412;-77
2023/06/23 06:45:05;;;;;;;10.48;9.50;;;;;;;34.50;57.65;95088.47;5060331;28;20020;-80
2023/06/23 06:47:31;;;;;;;9.38;8.77;;;;;;;35.60;53.37;95094.75;5058338;28;20039;-78
2023/06/23 06:49:59;;;;;;;10.95;10.10;;;;;;;33.39;58.97;95089.84;5058881;28;20028;-77
2023/06/23 06:52:26;;;;;;;9.25;8.52;;;;;;;32.43;69.96;95097.59;5058824;28;20453;-77
2023/06/23 06:54:52;;;;;;;10.60;9.50;;;;;;;32.23;69.06;95085.47;5060020;28;21292;-77
2023/06/23 06:57:19;;;;;;;9.80;9.00;;;;;;;32.28;66.42;95085.34;5058865;28;20116;-77
2023/06/23 06:59:44;;;;;;;10.30;9.43;;;;;;;32.15;67.68;95082.72;5059847;28;20060;-77
2023/06/23 07:02:10;;;;;;;9.88;9.07;;;;;;;32.17;68.68;95085.91;5060362;28;20111;-77
2023/06/23 07:04:36;;;;;;;9.50;8.90;;;;;;;31.84;67.97;95083.38;5058335;28;20453;-77
2023/06/23 07:07:02;;;;;;;9.20;8.50;;;;;;;32.59;66.34;95072.03;5045315;28;20070;-77
2023/06/23 07:09:27;;;;;;;10.63;9.35;;;;;;;35.62;56.07;95056.66;5048423;28;20045;-76
2023/06/23 07:11:57;;;;;;;11.13;10.13;;;;;;;33.69;55.88;95072.09;5057079;28;20024;-78
2023/06/23 07:14:22;;;;;;;10.57;9.77;;;;;;;29.62;79.69;95075.56;5060269;28;20021;-76
2023/06/23 07:16:48;;;;;;;9.32;8.63;;;;;;;30.88;80.56;95065.66;5059827;28;20025;-76
2023/06/23 07:19:13;;;;;;;9.45;8.70;;;;;;;30.68;82.44;95064.13;5060095;28;20841;-76
2023/06/23 07:21:39;;;;;;;9.70;8.95;;;;;;;31.02;79.07;95068.41;5059673;28;20108;-76
2023/06/23 07:24:05;;;;;;;9.75;8.88;;;;;;;30.67;77.95;95064.41;5059361;28;20444;-77
2023/06/23 07:26:31;;;;;;;10.25;9.52;;;;;;;30.21;80.85;95067.81;5059292;28;20029;-78
2023/06/23 07:28:56;;;;;;;10.23;9.52;;;;;;;30.24;77.98;95061.09;5048442;28;20021;-77
2023/06/23 07:31:22;;;;;;;10.48;9.75;;;;;;;30.45;79.65;95058.91;5057821;28;20025;-76
2023/06/23 07:33:48;;;;;;;10.52;9.60;;;;;;;30.96;81.39;95056.97;5063950;28;20031;-77
2023/06/23 07:36:13;;;;;;;9.98;9.27;;;;;;;31.07;85.50;95058.38;5063970;28;20042;-77
2023/06/23 07:38:39;;;;;;;9.98;9.20;;;;;;;31.11;84.15;95058.59;5063459;28;20021;-76
2023/06/23 07:41:04;;;;;;;10.73;9.80;;;;;;;29.20;91.11;95063.75;5064005;28;20409;-76
2023/06/23 07:43:30;;;;;;;11.00;10.20;;;;;;;30.36;84.95;95056.09;5062386;28;20041;-76
2023/06/23 07:45:55;;;;;;;10.40;9.60;;;;;;;30.95;87.74;95062.59;5063849;28;20033;-77
2023/06/23 07:48:21;;;;;;;10.95;9.20;;;;;;;30.85;83.84;95052.88;5055178;28;20029;-77
2023/06/23 07:50:47;;;;;;;9.30;8.70;;;;;;;31.10;81.44;95046.28;5044204;28;20036;-81
2023/06/23 07:53:12;;;;;;;10.02;9.23;;;;;;;30.90;81.81;95046.63;5062259;28;20023;-82
2023/06/23 07:55:38;;;;;;;11.00;10.07;;;;;;;30.97;82.20;95031.81;5062101;28;20024;-86
2023/06/23 07:58:03;;;;;;;10.57;9.73;;;;;;;30.91;84.90;95038.31;5062291;28;20028;-84
2023/06/23 08:00:29;;;;;;;9.60;9.00;;;;;;;31.27;88.19;95051.84;5061811;28;20517;-85
2023/06/23 08:02:54;;;;;;;9.98;9.35;;;;;;;31.12;84.12;95038.75;5063895;28;20508;-85
2023/06/23 08:05:20;;;;;;;9.95;9.30;;;;;;;30.68;85.53;95040.06;5061432;28;20314;-87
2023/06/23 08:07:46;;;;;;;10.30;9.50;;;;;;;31.11;85.09;95037.97;5051874;28;20436;-90
2023/06/23 08:10:12;;;;;;;11.18;10.38;;;;;;;30.07;83.46;95026.06;5059390;28;20517;-88
2023/06/23 08:12:37;;;;;;;11.13;10.07;;;;;;;30.53;83.82;95029.63;5040823;28;20044;-92
2023/06/23 08:15:06;;;;;;;10.55;9.75;;;;;;;30.53;90.02;95028.84;5050934;28;20443;-82
2023/06/23 08:17:32;;;;;;;11.20;10.25;;;;;;;30.30;84.43;95030.53;5063502;28;20123;-91
2023/06/23 08:19:58;;;;;;;12.10;10.93;;;;;;;29.86;87.59;95030.13;5064047;28;20135;-86
2023/06/23 08:22:23;;;;;;;11.10;10.05;;;;;;;30.29;92.23;95035.06;5064066;28;20051;-82
2023/06/23 08:24:49;;;;;;;10.40;9.45;;;;;;;30.91;88.03;95041.00;5062406;28;20031;-82
2023/06/23 08:27:14;;;;;;;10.65;9.93;;;;;;;30.24;87.16;95029.00;5049714;28;20029;-83
2023/06/23 08:29:40;;;;;;;10.50;9.68;;;;;;;30.13;86.79;95039.06;5059447;28;20062;-85
2023/06/23 08:32:06;;;;;;;10.57;9.27;;;;;;;30.87;88.83;95039.19;5043097;28;20024;-82
2023/06/23 08:34:31;;;;;;;9.70;9.00;;;;;;;31.02;89.69;95036.28;5042939;28;20039;-83
2023/06/23 08:36:57;;;;;;;9.90;9.00;;;;;;;31.15;88.30;95032.78;5059724;28;20486;-84
2023/06/23 08:39:23;;;;;;;10.30;9.60;;;;;;;30.79;85.64;95036.09;5040889;28;20426;-83
2023/06/23 08:41:49;;;;;;;10.18;9.45;;;;;;;31.24;90.35;95031.03;5060551;28;20024;-85
2023/06/23 08:44:15;;;;;;;11.05;10.18;;;;;;;31.21;84.47;95037.75;5060779;28;20115;-84
2023/06/23 08:46:41;;;;;;;9.80;9.15;;;;;;;30.89;89.68;95040.47;5041667;28;20067;-82
2023/06/23 08:49:10;;;;;;;9.45;8.65;;;;;;;31.14;85.39;95031.22;5042650;28;20039;-81
2023/06/23 08:51:36;;;;;;;9.63;8.82;;;;;;;31.54;85.68;95034.97;5042314;28;20103;-82
2023/06/23 08:54:02;;;;;;;11.10;9.40;;;;;;;30.67;86.40;95033.13;5055555;28;20043;-81
2023/06/23 08:56:28;;;;;;;9.70;9.00;;;;;;;30.95;81.48;95030.50;5041121;28;20028;-78
2023/06/23 08:58:53;;;;;;;9.73;8.98;;;;;;;30.84;81.27;95017.28;5060273;28;20043;-83
2023/06/23 09:01:19;;;;;;;9.75;8.95;;;;;;;30.79;83.59;95030.75;5058724;28;20506;-79
2023/06/23 09:03:44;;;;;;;10.50;9.50;;;;;;;30.84;78.56;95027.19;5035558;28;20025;-80
2023/06/23 09:06:11;;;;;;;10.27;8.40;;;;;;;31.32;81.69;95022.28;5054366;28;20064;-80
2023/06/23 09:08:36;;;;;;;9.63;8.73;;;;;;;31.23;74.47;95024.06;5058264;28;20039;-81
2023/06/23 09:11:02;;;;;;;9.40;8.52;;;;;;;29.51;70.84;95016.16;5059875;28;20021;-80
2023/06/23 09:13:30;;;;;;;9.77;8.95;;;;;;;29.96;74.03;95013.97;5050497;28;20036;-78
2023/06/23 09:15:56;;;;;;;8.98;8.27;;;;;;;30.65;74.91;95007.75;5038350;28;20106;-79
2023/06/23 09:18:22;;;;;;;9.27;8.38;;;;;;;29.96;70.67;95005.94;5058758;28;20497;-78
2023/06/23 09:20:51;;;;;;;7.35;6.75;;;;;;;30.75;66.86;94997.66;5043649;28;20454;-78
2023/06/23 09:23:18;;;;;;;8.40;7.70;;;;;;;31.16;66.55;94997.69;5042779;28;20028;-80
2023/06/23 09:25:48;;;;;;;9.32;8.40;;;;;;;30.98;67.68;95000.47;5058356;28;20039;-79
2023/06/23 09:28:24;;;;;;;8.70;8.10;;;;;;;31.50;73.02;95008.00;5052793;28;20098;-80
2023/06/23 09:30:50;;;;;;;7.97;7.25;;;;;;;31.39;74.21;95001.25;5050390;28;20032;-83
2023/06/23 09:33:20;;;;;;;8.40;7.90;;;;;;;31.49;76.07;95005.59;5043596;28;20089;-79
2023/06/23 09:35:49;;;;;;;8.95;8.35;;;;;;;31.45;77.05;95008.06;5039721;28;20132;-81
2023/06/23 09:38:26;;;;;;;9.88;8.95;;;;;;;31.72;71.84;95009.94;5059434;28;20031;-80
2023/06/23 09:41:13;;;;;;;9.32;8.60;;;;;;;31.29;72.66;94998.78;5039032;28;20051;-79
2023/06/23 09:43:42;;;;;;;8.73;8.00;;;;;;;31.14;70.00;94999.09;5041976;28;20090;-78
2023/06/23 09:46:10;;;;;;;9.45;8.68;;;;;;;30.84;70.78;94995.09;5054362;28;20028;-77
2023/06/23 09:48:36;;;;;;;9.52;8.25;;;;;;;31.08;70.78;95001.06;5050662;28;20112;-77
2023/06/23 09:51:02;;;;;;;9.70;8.13;;;;;;;30.37;67.61;94992.72;5060837;28;20143;-77
2023/06/23 09:53:36;;;;;;;8.60;7.95;;;;;;;31.22;72.12;94993.81;5058670;28;20138;-79
2023/06/23 09:56:04;;;;;;;8.50;7.68;;;;;;;31.77;74.19;94989.19;5059415;28;20446;-78
2023/06/23 09:58:40;;;;;;;8.60;8.00;;;;;;;31.83;73.74;94997.88;5060117;28;20335;-78
2023/06/23 10:01:08;;;;;;;8.77;7.95;;;;;;;31.29;72.45;94996.09;5042704;28;20037;-79
2023/06/23 10:03:45;;;;;;;9.18;8.55;;;;;;;31.35;71.97;94984.97;5040191;28;20097;-79
2023/06/23 10:06:38;;;;;;;8.65;8.02;;;;;;;31.38;72.68;94994.28;5057343;28;20116;-80
2023/06/23 10:09:07;;;;;;;9.82;8.85;;;;;;;30.42;72.77;94993.44;5058548;28;20432;-78
2023/06/23 10:11:37;;;;;;;9.23;8.43;;;;;;;30.24;74.82;94987.03;5041821;28;20048;-77
2023/06/23 10:14:11;;;;;;;9.25;8.50;;;;;;;30.80;75.17;94986.84;5058495;28;20055;-79
2023/06/23 10:16:41;;;;;;;8.82;8.13;;;;;;;30.34;74.29;94988.75;5058234;28;20143;-80
2023/06/23 10:19:06;;;;;;;8.02;7.43;;;;;;;30.22;76.39;94978.50;5040963;28;20091;-80
2023/06/23 10:21:32;;;;;;;8.32;7.50;;;;;;;30.27;73.79;94966.94;5059576;28;20074;-79
2023/06/23 10:24:02;;;;;;;7.65;7.07;;;;;;;30.82;77.11;94971.28;5057384;28;20444;-78
2023/06/23 10:26:31;;;;;;;8.43;7.63;;;;;;;30.91;69.90;94973.28;5058493;28;20051;-79
2023/06/23 10:28:58;;;;;;;9.15;8.45;;;;;;;30.95;74.00;94968.94;5059377;28;20447;-78
2023/06/23 10:31:24;;;;;;;8.77;8.07;;;;;;;31.15;72.23;94968.53;5038956;28;20494;-78
2023/06/23 10:33:50;;;;;;;8.75;8.02;;;;;;;31.02;68.47;94955.97;5023113;28;20094;-79
2023/06/23 10:36:20;;;;;;;8.00;7.30;;;;;;;30.53;68.90;94960.09;5053480;28;20448;-81
2023/06/23 10:38:47;;;;;;;8.40;7.40;;;;;;;30.53;77.32;94962.75;5057748;28;20499;-79
2023/06/23 10:41:14;;;;;;;10.48;7.80;;;;;;;30.67;70.08;94957.41;5042593;28;20528;-79
2023/06/23 10:43:41;;;;;;;8.65;7.78;;;;;;;30.72;77.46;94960.81;5052911;28;20032;-79
2023/06/23 10:46:07;;;;;;;9.50;8.55;;;;;;;30.44;72.18;94956.47;5047839;28;20077;-79
2023/06/23 10:48:33;;;;;;;9.02;8.23;;;;;;;30.90;73.52;94956.44;5055186;28;20021;-79
2023/06/23 10:50:59;;;;;;;10.55;8.05;;;;;;;31.23;69.62;94938.38;5034008;28;20737;-79
2023/06/23 10:53:32;;;;;;;7.93;7.25;;;;;;;31.15;69.87;94950.59;5054986;28;20098;-78
2023/06/23 10:55:58;;;;;;;8.38;7.68;;;;;;;31.39;72.27;94942.31;5046931;28;20425;-79
2023/06/23 10:58:24;;;;;;;9.73;8.63;;;;;;;30.79;70.26;94939.00;5058515;28;20035;-77
2023/06/23 11:00:52;;;;;;;8.98;8.27;;;;;;;30.88;73.09;94945.25;5053704;28;20025;-78
2023/06/23 11:03:25;;;;;;;;;;;;;;;30.59;73.84;94934.03;5046529;28;20033;-77
2023/06/23 11:05:58;;;;;;;12.32;9.15;;;;;;;30.74;72.52;94936.41;5038837;28;19916;-78
2023/06/23 11:08:37;;;;;;;9.07;8.38;;;;;;;31.04;77.68;94945.75;5042514;28;20502;-79
2023/06/23 11:11:05;;;;;;;8.85;8.07;;;;;;;30.44;75.15;94935.09;5035130;28;20162;-81
2023/06/23 11:13:38;;;;;;;8.43;7.72;;;;;;;30.75;81.72;94924.63;5056182;28;20025;-79
2023/06/23 11:16:05;;;;;;;9.65;8.98;;;;;;;30.79;80.22;94931.75;5052053;28;20036;-79
2023/06/23 11:18:30;;;;;;;8.77;7.97;;;;;;;30.95;78.74;94926.94;5055706;28;20143;-79
2023/06/23 11:21:15;;;;;;;9.52;8.65;;;;;;;30.84;76.59;94922.81;5047843;28;20108;-78
2023/06/23 11:24:20;;;;;;;10.13;9.20;;;;;;;30.40;77.84;94914.59;5033552;28;20055;-80
2023/06/23 11:26:48;;;;;;;9.07;8.40;;;;;;;30.72;82.16;94915.31;5023318;28;20039;-77